sensor_id;sensor_type;location;lat;lon;timestamp;P1;durP1;ratioP1;P2;durP2;ratioP2
23171;SDS011;11754;42.664;23.594;2023-09-19T00:01:05;6.90;;;4.10;;
23171;SDS011;11754;42.664;23.594;2023-09-19T00:03:33;6.78;;;4.28;;
23171;SDS011;11754;42.664;23.594;2023-09-19T00:06:02;8.82;;;4.38;;
23171;SDS011;11754;42.664;23.594;2023-09-19T00:08:28;4.85;;;3.72;;
23171;SDS011;11754;42.664;23.594;2023-09-19T00:10:54;6.03;;;4.13;;
23171;SDS011;11754;42.664;23.594;2023-09-19T00:13:19;8.07;;;4.60;;
23171;SDS011;11754;42.664;23.594;2023-09-19T00:15:45;9.90;;;4.28;;
23171;SDS011;11754;42.664;23.594;2023-09-19T00:18:15;9.05;;;4.32;;
23171;SDS011;11754;42.664;23.594;2023-09-19T00:20:43;17.13;;;4.68;;
23171;SDS011;11754;42.664;23.594;2023-09-19T00:23:12;6.78;;;4.28;;
23171;SDS011;11754;42.664;23.594;2023-09-19T00:25:38;8.90;;;4.47;;
23171;SDS011;11754;42.664;23.594;2023-09-19T00:28:05;6.57;;;4.43;;
23171;SDS011;11754;42.664;23.594;2023-09-19T00:30:32;6.35;;;4.72;;
23171;SDS011;11754;42.664;23.594;2023-09-19T00:32:58;6.88;;;4.50;;
23171;SDS011;11754;42.664;23.594;2023-09-19T00:35:23;8.55;;;4.63;;
23171;SDS011;11754;42.664;23.594;2023-09-19T00:37:49;6.97;;;4.60;;
23171;SDS011;11754;42.664;23.594;2023-09-19T00:40:15;7.45;;;4.75;;
23171;SDS011;11754;42.664;23.594;2023-09-19T00:42:41;9.13;;;4.88;;
23171;SDS011;11754;42.664;23.594;2023-09-19T00:45:08;8.10;;;4.68;;
23171;SDS011;11754;42.664;23.594;2023-09-19T00:47:41;8.15;;;4.95;;
23171;SDS011;11754;42.664;23.594;2023-09-19T00:50:09;5.55;;;4.57;;
23171;SDS011;11754;42.664;23.594;2023-09-19T00:52:36;9.90;;;4.63;;
23171;SDS011;11754;42.664;23.594;2023-09-19T00:55:03;8.30;;;5.00;;
23171;SDS011;11754;42.664;23.594;2023-09-19T00:57:30;7.70;;;4.68;;
23171;SDS011;11754;42.664;23.594;2023-09-19T00:59:57;5.38;;;4.40;;
23171;SDS011;11754;42.664;23.594;2023-09-19T01:02:24;6.60;;;4.55;;
23171;SDS011;11754;42.664;23.594;2023-09-19T01:04:53;8.82;;;4.78;;
23171;SDS011;11754;42.664;23.594;2023-09-19T01:07:19;8.00;;;4.97;;
23171;SDS011;11754;42.664;23.594;2023-09-19T01:09:45;10.95;;;5.10;;
23171;SDS011;11754;42.664;23.594;2023-09-19T01:12:10;6.40;;;4.85;;
23171;SDS011;11754;42.664;23.594;2023-09-19T01:14:44;6.60;;;4.90;;
23171;SDS011;11754;42.664;23.594;2023-09-19T01:17:26;7.38;;;5.50;;
23171;SDS011;11754;42.664;23.594;2023-09-19T01:31:01;7.60;;;5.30;;
23171;SDS011;11754;42.664;23.594;2023-09-19T01:36:24;9.40;;;5.35;;
23171;SDS011;11754;42.664;23.594;2023-09-19T01:38:54;7.85;;;5.75;;
23171;SDS011;11754;42.664;23.594;2023-09-19T01:41:29;6.43;;;5.32;;
23171;SDS011;11754;42.664;23.594;2023-09-19T01:44:05;7.05;;;5.70;;
23171;SDS011;11754;42.664;23.594;2023-09-19T01:46:35;8.13;;;6.05;;
23171;SDS011;11754;42.664;23.594;2023-09-19T01:54:25;6.57;;;4.93;;
23171;SDS011;11754;42.664;23.594;2023-09-19T01:59:38;6.18;;;5.22;;
23171;SDS011;11754;42.664;23.594;2023-09-19T02:02:10;6.25;;;5.07;;
23171;SDS011;11754;42.664;23.594;2023-09-19T02:04:37;7.85;;;5.70;;
23171;SDS011;11754;42.664;23.594;2023-09-19T02:07:02;6.97;;;5.55;;
23171;SDS011;11754;42.664;23.594;2023-09-19T02:09:30;7.20;;;5.55;;
23171;SDS011;11754;42.664;23.594;2023-09-19T02:11:56;8.13;;;5.43;;
23171;SDS011;11754;42.664;23.594;2023-09-19T02:14:21;9.65;;;5.00;;
23171;SDS011;11754;42.664;23.594;2023-09-19T02:16:47;7.65;;;5.05;;
23171;SDS011;11754;42.664;23.594;2023-09-19T02:19:15;7.15;;;5.60;;
23171;SDS011;11754;42.664;23.594;2023-09-19T02:21:40;11.10;;;5.22;;
23171;SDS011;11754;42.664;23.594;2023-09-19T02:24:06;7.07;;;4.60;;
23171;SDS011;11754;42.664;23.594;2023-09-19T02:26:33;7.03;;;4.82;;
23171;SDS011;11754;42.664;23.594;2023-09-19T02:29:01;8.75;;;4.65;;
23171;SDS011;11754;42.664;23.594;2023-09-19T02:31:29;7.70;;;4.47;;
23171;SDS011;11754;42.664;23.594;2023-09-19T02:33:55;5.40;;;4.60;;
23171;SDS011;11754;42.664;23.594;2023-09-19T02:36:21;10.73;;;4.78;;
23171;SDS011;11754;42.664;23.594;2023-09-19T02:38:48;6.82;;;5.07;;
23171;SDS011;11754;42.664;23.594;2023-09-19T02:41:14;8.98;;;4.47;;
23171;SDS011;11754;42.664;23.594;2023-09-19T02:43:39;6.53;;;4.85;;
23171;SDS011;11754;42.664;23.594;2023-09-19T02:46:04;8.45;;;4.68;;
23171;SDS011;11754;42.664;23.594;2023-09-19T02:48:30;7.22;;;4.43;;
23171;SDS011;11754;42.664;23.594;2023-09-19T02:50:57;10.50;;;4.80;;
23171;SDS011;11754;42.664;23.594;2023-09-19T02:53:22;8.80;;;5.00;;
23171;SDS011;11754;42.664;23.594;2023-09-19T02:55:49;8.43;;;4.85;;
23171;SDS011;11754;42.664;23.594;2023-09-19T02:58:14;8.93;;;5.13;;
23171;SDS011;11754;42.664;23.594;2023-09-19T03:00:40;8.32;;;4.68;;
23171;SDS011;11754;42.664;23.594;2023-09-19T03:03:12;9.23;;;4.72;;
23171;SDS011;11754;42.664;23.594;2023-09-19T03:05:38;13.35;;;4.82;;
23171;SDS011;11754;42.664;23.594;2023-09-19T03:08:03;9.48;;;5.10;;
23171;SDS011;11754;42.664;23.594;2023-09-19T03:10:29;11.48;;;4.82;;
23171;SDS011;11754;42.664;23.594;2023-09-19T03:12:56;7.93;;;4.70;;
23171;SDS011;11754;42.664;23.594;2023-09-19T03:15:21;10.05;;;5.15;;
23171;SDS011;11754;42.664;23.594;2023-09-19T03:17:48;9.25;;;5.00;;
23171;SDS011;11754;42.664;23.594;2023-09-19T03:20:14;8.20;;;4.95;;
23171;SDS011;11754;42.664;23.594;2023-09-19T03:22:45;11.32;;;5.40;;
23171;SDS011;11754;42.664;23.594;2023-09-19T03:25:13;7.35;;;5.00;;
23171;SDS011;11754;42.664;23.594;2023-09-19T03:27:39;9.18;;;5.00;;
23171;SDS011;11754;42.664;23.594;2023-09-19T03:30:05;7.60;;;5.07;;
23171;SDS011;11754;42.664;23.594;2023-09-19T03:32:36;7.65;;;4.80;;
23171;SDS011;11754;42.664;23.594;2023-09-19T03:35:02;8.32;;;4.85;;
23171;SDS011;11754;42.664;23.594;2023-09-19T03:37:30;8.05;;;4.82;;
23171;SDS011;11754;42.664;23.594;2023-09-19T03:39:56;8.80;;;4.70;;
23171;SDS011;11754;42.664;23.594;2023-09-19T03:42:22;7.50;;;5.30;;
23171;SDS011;11754;42.664;23.594;2023-09-19T03:44:50;9.40;;;5.20;;
23171;SDS011;11754;42.664;23.594;2023-09-19T03:47:17;7.13;;;4.70;;
23171;SDS011;11754;42.664;23.594;2023-09-19T03:49:44;6.45;;;4.68;;
23171;SDS011;11754;42.664;23.594;2023-09-19T03:52:09;7.03;;;4.72;;
23171;SDS011;11754;42.664;23.594;2023-09-19T03:54:35;8.32;;;4.93;;
23171;SDS011;11754;42.664;23.594;2023-09-19T03:57:00;6.70;;;4.53;;
23171;SDS011;11754;42.664;23.594;2023-09-19T03:59:25;8.73;;;4.90;;
23171;SDS011;11754;42.664;23.594;2023-09-19T04:01:51;7.10;;;4.55;;
23171;SDS011;11754;42.664;23.594;2023-09-19T04:04:20;7.03;;;4.72;;
23171;SDS011;11754;42.664;23.594;2023-09-19T04:06:46;7.95;;;5.10;;
23171;SDS011;11754;42.664;23.594;2023-09-19T04:09:12;12.27;;;5.20;;
23171;SDS011;11754;42.664;23.594;2023-09-19T04:11:38;14.32;;;4.78;;
23171;SDS011;11754;42.664;23.594;2023-09-19T04:14:03;9.30;;;5.13;;
23171;SDS011;11754;42.664;23.594;2023-09-19T04:16:29;11.57;;;4.75;;
23171;SDS011;11754;42.664;23.594;2023-09-19T04:18:54;8.77;;;4.50;;
23171;SDS011;11754;42.664;23.594;2023-09-19T04:21:20;12.13;;;5.25;;
23171;SDS011;11754;42.664;23.594;2023-09-19T04:23:45;8.95;;;4.97;;
23171;SDS011;11754;42.664;23.594;2023-09-19T04:26:10;15.20;;;8.05;;
23171;SDS011;11754;42.664;23.594;2023-09-19T04:28:37;16.80;;;8.45;;
23171;SDS011;11754;42.664;23.594;2023-09-19T04:31:03;11.27;;;5.78;;
23171;SDS011;11754;42.664;23.594;2023-09-19T04:33:29;11.70;;;6.00;;
23171;SDS011;11754;42.664;23.594;2023-09-19T04:35:54;13.88;;;5.38;;
23171;SDS011;11754;42.664;23.594;2023-09-19T04:38:20;15.18;;;6.75;;
23171;SDS011;11754;42.664;23.594;2023-09-19T04:40:46;15.73;;;7.13;;
23171;SDS011;11754;42.664;23.594;2023-09-19T04:43:12;25.92;;;10.45;;
23171;SDS011;11754;42.664;23.594;2023-09-19T04:45:38;16.50;;;8.80;;
23171;SDS011;11754;42.664;23.594;2023-09-19T04:48:04;19.55;;;9.05;;
23171;SDS011;11754;42.664;23.594;2023-09-19T04:50:33;20.35;;;8.48;;
23171;SDS011;11754;42.664;23.594;2023-09-19T04:52:59;26.80;;;9.13;;
23171;SDS011;11754;42.664;23.594;2023-09-19T04:55:26;20.58;;;7.53;;
23171;SDS011;11754;42.664;23.594;2023-09-19T04:57:52;25.63;;;7.18;;
23171;SDS011;11754;42.664;23.594;2023-09-19T05:00:22;31.75;;;15.68;;
23171;SDS011;11754;42.664;23.594;2023-09-19T05:02:49;25.35;;;13.18;;
23171;SDS011;11754;42.664;23.594;2023-09-19T05:05:16;12.98;;;5.55;;
23171;SDS011;11754;42.664;23.594;2023-09-19T05:07:42;12.65;;;5.00;;
23171;SDS011;11754;42.664;23.594;2023-09-19T05:10:09;13.70;;;5.00;;
23171;SDS011;11754;42.664;23.594;2023-09-19T05:12:35;10.38;;;5.50;;
23171;SDS011;11754;42.664;23.594;2023-09-19T05:15:02;16.38;;;6.85;;
23171;SDS011;11754;42.664;23.594;2023-09-19T05:17:28;18.17;;;7.53;;
23171;SDS011;11754;42.664;23.594;2023-09-19T05:19:54;15.05;;;8.27;;
23171;SDS011;11754;42.664;23.594;2023-09-19T05:22:19;13.50;;;7.22;;
23171;SDS011;11754;42.664;23.594;2023-09-19T05:24:45;14.63;;;6.65;;
23171;SDS011;11754;42.664;23.594;2023-09-19T05:27:13;24.77;;;12.20;;
23171;SDS011;11754;42.664;23.594;2023-09-19T05:29:41;29.08;;;12.80;;
23171;SDS011;11754;42.664;23.594;2023-09-19T05:32:10;22.60;;;10.73;;
23171;SDS011;11754;42.664;23.594;2023-09-19T05:34:36;26.73;;;11.70;;
23171;SDS011;11754;42.664;23.594;2023-09-19T05:37:02;21.05;;;9.80;;
23171;SDS011;11754;42.664;23.594;2023-09-19T05:39:28;13.80;;;8.02;;
23171;SDS011;11754;42.664;23.594;2023-09-19T05:41:53;14.38;;;6.65;;
23171;SDS011;11754;42.664;23.594;2023-09-19T05:44:20;13.40;;;5.85;;
23171;SDS011;11754;42.664;23.594;2023-09-19T05:46:45;12.07;;;5.38;;
23171;SDS011;11754;42.664;23.594;2023-09-19T05:49:13;9.45;;;5.22;;
23171;SDS011;11754;42.664;23.594;2023-09-19T05:51:38;10.38;;;4.88;;
23171;SDS011;11754;42.664;23.594;2023-09-19T05:54:04;6.20;;;4.28;;
23171;SDS011;11754;42.664;23.594;2023-09-19T05:56:30;10.05;;;4.80;;
23171;SDS011;11754;42.664;23.594;2023-09-19T05:58:56;8.45;;;4.40;;
23171;SDS011;11754;42.664;23.594;2023-09-19T06:01:21;11.45;;;4.72;;
23171;SDS011;11754;42.664;23.594;2023-09-19T06:03:47;8.07;;;4.43;;
23171;SDS011;11754;42.664;23.594;2023-09-19T06:06:13;9.57;;;4.50;;
23171;SDS011;11754;42.664;23.594;2023-09-19T06:08:39;6.85;;;4.15;;
23171;SDS011;11754;42.664;23.594;2023-09-19T06:11:04;5.63;;;3.83;;
23171;SDS011;11754;42.664;23.594;2023-09-19T06:13:34;8.20;;;4.28;;
23171;SDS011;11754;42.664;23.594;2023-09-19T06:15:59;7.97;;;4.35;;
23171;SDS011;11754;42.664;23.594;2023-09-19T06:18:30;8.48;;;4.68;;
23171;SDS011;11754;42.664;23.594;2023-09-19T06:20:59;8.40;;;3.88;;
23171;SDS011;11754;42.664;23.594;2023-09-19T06:23:24;7.05;;;3.80;;
23171;SDS011;11754;42.664;23.594;2023-09-19T06:25:52;5.95;;;3.80;;
23171;SDS011;11754;42.664;23.594;2023-09-19T06:28:18;7.40;;;3.60;;
23171;SDS011;11754;42.664;23.594;2023-09-19T06:30:49;13.43;;;4.00;;
23171;SDS011;11754;42.664;23.594;2023-09-19T06:33:14;6.00;;;3.50;;
23171;SDS011;11754;42.664;23.594;2023-09-19T06:35:40;5.50;;;3.30;;
23171;SDS011;11754;42.664;23.594;2023-09-19T06:38:07;9.05;;;3.55;;
23171;SDS011;11754;42.664;23.594;2023-09-19T06:40:36;5.60;;;3.60;;
23171;SDS011;11754;42.664;23.594;2023-09-19T06:43:01;5.32;;;3.70;;
23171;SDS011;11754;42.664;23.594;2023-09-19T06:45:27;6.35;;;3.63;;
23171;SDS011;11754;42.664;23.594;2023-09-19T06:47:53;8.05;;;3.40;;
23171;SDS011;11754;42.664;23.594;2023-09-19T06:50:22;6.93;;;3.47;;
23171;SDS011;11754;42.664;23.594;2023-09-19T06:52:53;7.93;;;3.35;;
23171;SDS011;11754;42.664;23.594;2023-09-19T06:55:39;10.77;;;3.55;;
23171;SDS011;11754;42.664;23.594;2023-09-19T06:58:05;10.27;;;3.75;;
23171;SDS011;11754;42.664;23.594;2023-09-19T07:00:51;6.47;;;3.15;;
23171;SDS011;11754;42.664;23.594;2023-09-19T07:03:16;6.20;;;3.22;;
23171;SDS011;11754;42.664;23.594;2023-09-19T07:05:43;7.18;;;3.17;;
23171;SDS011;11754;42.664;23.594;2023-09-19T07:08:09;9.23;;;3.78;;
23171;SDS011;11754;42.664;23.594;2023-09-19T07:10:37;9.93;;;3.40;;
23171;SDS011;11754;42.664;23.594;2023-09-19T07:13:06;9.15;;;3.95;;
23171;SDS011;11754;42.664;23.594;2023-09-19T07:15:36;7.97;;;4.30;;
23171;SDS011;11754;42.664;23.594;2023-09-19T07:18:06;11.00;;;3.88;;
23171;SDS011;11754;42.664;23.594;2023-09-19T07:20:33;5.68;;;3.90;;
23171;SDS011;11754;42.664;23.594;2023-09-19T07:22:59;5.38;;;3.22;;
23171;SDS011;11754;42.664;23.594;2023-09-19T07:25:26;5.05;;;2.72;;
23171;SDS011;11754;42.664;23.594;2023-09-19T07:27:52;6.70;;;3.63;;
23171;SDS011;11754;42.664;23.594;2023-09-19T07:30:19;5.55;;;3.13;;
23171;SDS011;11754;42.664;23.594;2023-09-19T07:32:45;4.65;;;2.88;;
23171;SDS011;11754;42.664;23.594;2023-09-19T07:35:10;7.43;;;2.72;;
23171;SDS011;11754;42.664;23.594;2023-09-19T07:37:37;4.00;;;2.80;;
23171;SDS011;11754;42.664;23.594;2023-09-19T07:40:03;7.50;;;3.30;;
23171;SDS011;11754;42.664;23.594;2023-09-19T07:42:33;8.05;;;3.75;;
23171;SDS011;11754;42.664;23.594;2023-09-19T07:45:00;6.70;;;3.45;;
23171;SDS011;11754;42.664;23.594;2023-09-19T07:47:26;4.75;;;2.92;;
23171;SDS011;11754;42.664;23.594;2023-09-19T07:49:52;6.43;;;3.22;;
23171;SDS011;11754;42.664;23.594;2023-09-19T07:52:18;5.60;;;3.03;;
23171;SDS011;11754;42.664;23.594;2023-09-19T07:54:44;5.82;;;2.90;;
23171;SDS011;11754;42.664;23.594;2023-09-19T07:57:10;3.97;;;2.90;;
23171;SDS011;11754;42.664;23.594;2023-09-19T07:59:36;7.18;;;2.70;;
23171;SDS011;11754;42.664;23.594;2023-09-19T08:02:04;6.20;;;2.92;;
23171;SDS011;11754;42.664;23.594;2023-09-19T08:04:30;6.22;;;2.90;;
23171;SDS011;11754;42.664;23.594;2023-09-19T08:06:58;5.22;;;2.67;;
23171;SDS011;11754;42.664;23.594;2023-09-19T08:09:25;6.05;;;2.83;;
23171;SDS011;11754;42.664;23.594;2023-09-19T08:11:52;6.25;;;3.03;;
23171;SDS011;11754;42.664;23.594;2023-09-19T08:14:18;3.22;;;2.72;;
23171;SDS011;11754;42.664;23.594;2023-09-19T08:16:43;7.50;;;2.95;;
23171;SDS011;11754;42.664;23.594;2023-09-19T08:19:09;8.10;;;2.80;;
23171;SDS011;11754;42.664;23.594;2023-09-19T08:21:35;7.25;;;2.88;;
23171;SDS011;11754;42.664;23.594;2023-09-19T08:24:01;4.43;;;2.80;;
23171;SDS011;11754;42.664;23.594;2023-09-19T08:26:29;5.43;;;3.03;;
23171;SDS011;11754;42.664;23.594;2023-09-19T08:28:56;5.57;;;2.83;;
23171;SDS011;11754;42.664;23.594;2023-09-19T08:31:22;4.13;;;2.50;;
23171;SDS011;11754;42.664;23.594;2023-09-19T08:33:49;4.65;;;2.80;;
23171;SDS011;11754;42.664;23.594;2023-09-19T08:36:16;7.20;;;2.78;;
23171;SDS011;11754;42.664;23.594;2023-09-19T08:38:42;7.05;;;3.13;;
23171;SDS011;11754;42.664;23.594;2023-09-19T08:41:07;8.10;;;4.35;;
23171;SDS011;11754;42.664;23.594;2023-09-19T08:43:34;5.88;;;2.80;;
23171;SDS011;11754;42.664;23.594;2023-09-19T08:48:37;2.75;;;2.30;;
23171;SDS011;11754;42.664;23.594;2023-09-19T08:51:10;3.47;;;2.38;;
23171;SDS011;11754;42.664;23.594;2023-09-19T08:53:42;4.47;;;2.50;;
23171;SDS011;11754;42.664;23.594;2023-09-19T08:56:17;6.20;;;2.50;;
23171;SDS011;11754;42.664;23.594;2023-09-19T08:58:46;4.82;;;2.58;;
23171;SDS011;11754;42.664;23.594;2023-09-19T09:01:18;4.55;;;2.42;;
23171;SDS011;11754;42.664;23.594;2023-09-19T09:03:52;4.00;;;2.40;;
23171;SDS011;11754;42.664;23.594;2023-09-19T09:06:22;5.45;;;2.63;;
23171;SDS011;11754;42.664;23.594;2023-09-19T09:08:50;5.97;;;2.35;;
23171;SDS011;11754;42.664;23.594;2023-09-19T09:11:17;4.90;;;2.45;;
23171;SDS011;11754;42.664;23.594;2023-09-19T09:13:46;5.80;;;2.42;;
23171;SDS011;11754;42.664;23.594;2023-09-19T09:16:13;5.57;;;2.53;;
23171;SDS011;11754;42.664;23.594;2023-09-19T09:18:42;5.90;;;2.30;;
23171;SDS011;11754;42.664;23.594;2023-09-19T09:21:09;5.72;;;2.60;;
23171;SDS011;11754;42.664;23.594;2023-09-19T09:23:35;5.72;;;3.13;;
23171;SDS011;11754;42.664;23.594;2023-09-19T09:26:01;8.55;;;3.13;;
23171;SDS011;11754;42.664;23.594;2023-09-19T09:28:31;5.30;;;3.10;;
23171;SDS011;11754;42.664;23.594;2023-09-19T09:30:58;7.38;;;3.53;;
23171;SDS011;11754;42.664;23.594;2023-09-19T09:33:27;3.55;;;1.98;;
23171;SDS011;11754;42.664;23.594;2023-09-19T09:38:25;4.55;;;2.15;;
23171;SDS011;11754;42.664;23.594;2023-09-19T09:40:58;6.63;;;2.90;;
23171;SDS011;11754;42.664;23.594;2023-09-19T09:43:31;4.70;;;2.28;;
23171;SDS011;11754;42.664;23.594;2023-09-19T09:46:07;6.82;;;2.05;;
23171;SDS011;11754;42.664;23.594;2023-09-19T09:49:00;5.53;;;2.33;;
23171;SDS011;11754;42.664;23.594;2023-09-19T09:51:48;5.60;;;2.03;;
23171;SDS011;11754;42.664;23.594;2023-09-19T09:54:28;4.45;;;1.75;;
23171;SDS011;11754;42.664;23.594;2023-09-19T09:57:04;5.30;;;2.22;;
23171;SDS011;11754;42.664;23.594;2023-09-19T09:59:49;5.07;;;2.17;;
23171;SDS011;11754;42.664;23.594;2023-09-19T10:02:17;3.73;;;2.00;;
23171;SDS011;11754;42.664;23.594;2023-09-19T10:04:49;4.80;;;1.70;;
23171;SDS011;11754;42.664;23.594;2023-09-19T10:07:34;3.45;;;1.75;;
23171;SDS011;11754;42.664;23.594;2023-09-19T10:10:38;4.05;;;2.53;;
23171;SDS011;11754;42.664;23.594;2023-09-19T10:13:08;3.65;;;2.33;;
23171;SDS011;11754;42.664;23.594;2023-09-19T10:15:39;4.50;;;2.00;;
23171;SDS011;11754;42.664;23.594;2023-09-19T10:18:16;3.92;;;2.15;;
23171;SDS011;11754;42.664;23.594;2023-09-19T10:20:46;8.35;;;2.22;;
23171;SDS011;11754;42.664;23.594;2023-09-19T10:23:13;4.65;;;2.10;;
23171;SDS011;11754;42.664;23.594;2023-09-19T10:25:39;4.95;;;2.30;;
23171;SDS011;11754;42.664;23.594;2023-09-19T10:28:12;2.83;;;1.95;;
23171;SDS011;11754;42.664;23.594;2023-09-19T10:30:43;2.78;;;2.13;;
23171;SDS011;11754;42.664;23.594;2023-09-19T10:33:13;3.33;;;1.88;;
23171;SDS011;11754;42.664;23.594;2023-09-19T10:35:45;4.57;;;2.00;;
23171;SDS011;11754;42.664;23.594;2023-09-19T10:38:12;2.90;;;1.80;;
23171;SDS011;11754;42.664;23.594;2023-09-19T10:40:39;4.93;;;1.60;;
23171;SDS011;11754;42.664;23.594;2023-09-19T10:43:11;7.70;;;2.30;;
23171;SDS011;11754;42.664;23.594;2023-09-19T10:45:39;2.67;;;1.80;;
23171;SDS011;11754;42.664;23.594;2023-09-19T10:48:06;3.97;;;2.10;;
23171;SDS011;11754;42.664;23.594;2023-09-19T10:50:43;3.55;;;1.90;;
23171;SDS011;11754;42.664;23.594;2023-09-19T10:53:20;3.90;;;1.90;;
23171;SDS011;11754;42.664;23.594;2023-09-19T10:55:54;5.88;;;2.08;;
23171;SDS011;11754;42.664;23.594;2023-09-19T10:58:28;5.38;;;2.03;;
23171;SDS011;11754;42.664;23.594;2023-09-19T11:01:07;2.85;;;1.70;;
23171;SDS011;11754;42.664;23.594;2023-09-19T11:03:43;4.93;;;1.80;;
23171;SDS011;11754;42.664;23.594;2023-09-19T11:06:14;2.95;;;1.77;;
23171;SDS011;11754;42.664;23.594;2023-09-19T11:36:11;4.95;;;2.30;;
23171;SDS011;11754;42.664;23.594;2023-09-19T11:43:47;6.07;;;2.33;;
23171;SDS011;11754;42.664;23.594;2023-09-19T11:46:17;7.00;;;2.13;;
23171;SDS011;11754;42.664;23.594;2023-09-19T11:48:53;4.18;;;2.22;;
23171;SDS011;11754;42.664;23.594;2023-09-19T11:53:48;4.70;;;2.88;;
23171;SDS011;11754;42.664;23.594;2023-09-19T11:56:20;4.93;;;1.95;;
23171;SDS011;11754;42.664;23.594;2023-09-19T11:58:49;5.00;;;2.10;;
23171;SDS011;11754;42.664;23.594;2023-09-19T12:01:32;6.78;;;1.98;;
23171;SDS011;11754;42.664;23.594;2023-09-19T12:04:01;3.28;;;1.80;;
23171;SDS011;11754;42.664;23.594;2023-09-19T12:06:29;3.55;;;2.03;;
23171;SDS011;11754;42.664;23.594;2023-09-19T12:08:57;6.25;;;2.20;;
23171;SDS011;11754;42.664;23.594;2023-09-19T12:11:28;4.95;;;2.42;;
23171;SDS011;11754;42.664;23.594;2023-09-19T12:13:58;4.88;;;2.30;;
23171;SDS011;11754;42.664;23.594;2023-09-19T12:16:25;5.80;;;2.30;;
23171;SDS011;11754;42.664;23.594;2023-09-19T12:18:55;4.22;;;2.40;;
23171;SDS011;11754;42.664;23.594;2023-09-19T12:21:31;3.17;;;2.13;;
23171;SDS011;11754;42.664;23.594;2023-09-19T12:24:07;3.38;;;2.17;;
23171;SDS011;11754;42.664;23.594;2023-09-19T12:26:42;3.70;;;2.30;;
23171;SDS011;11754;42.664;23.594;2023-09-19T12:31:47;3.88;;;1.88;;
23171;SDS011;11754;42.664;23.594;2023-09-19T12:34:19;3.88;;;1.80;;
23171;SDS011;11754;42.664;23.594;2023-09-19T12:36:47;3.47;;;2.00;;
23171;SDS011;11754;42.664;23.594;2023-09-19T12:39:22;7.05;;;2.03;;
23171;SDS011;11754;42.664;23.594;2023-09-19T12:41:49;4.03;;;2.00;;
23171;SDS011;11754;42.664;23.594;2023-09-19T12:44:16;3.25;;;2.00;;
23171;SDS011;11754;42.664;23.594;2023-09-19T12:46:43;4.90;;;1.80;;
23171;SDS011;11754;42.664;23.594;2023-09-19T12:49:16;4.18;;;1.73;;
23171;SDS011;11754;42.664;23.594;2023-09-19T12:51:43;4.72;;;1.67;;
23171;SDS011;11754;42.664;23.594;2023-09-19T12:54:09;2.72;;;1.50;;
23171;SDS011;11754;42.664;23.594;2023-09-19T12:56:40;2.05;;;1.30;;
23171;SDS011;11754;42.664;23.594;2023-09-19T12:59:12;3.22;;;1.60;;
23171;SDS011;11754;42.664;23.594;2023-09-19T13:01:42;4.75;;;1.48;;
23171;SDS011;11754;42.664;23.594;2023-09-19T13:06:57;3.15;;;1.58;;
23171;SDS011;11754;42.664;23.594;2023-09-19T13:09:26;5.32;;;1.73;;
23171;SDS011;11754;42.664;23.594;2023-09-19T13:12:03;3.33;;;1.70;;
23171;SDS011;11754;42.664;23.594;2023-09-19T13:14:32;5.63;;;1.67;;
23171;SDS011;11754;42.664;23.594;2023-09-19T13:17:08;3.47;;;1.60;;
23171;SDS011;11754;42.664;23.594;2023-09-19T13:19:49;3.67;;;1.45;;
23171;SDS011;11754;42.664;23.594;2023-09-19T13:25:16;3.67;;;1.50;;
23171;SDS011;11754;42.664;23.594;2023-09-19T13:27:44;4.55;;;1.50;;
23171;SDS011;11754;42.664;23.594;2023-09-19T13:30:10;4.03;;;1.20;;
23171;SDS011;11754;42.664;23.594;2023-09-19T13:32:37;5.28;;;1.30;;
23171;SDS011;11754;42.664;23.594;2023-09-19T13:35:04;3.33;;;1.20;;
23171;SDS011;11754;42.664;23.594;2023-09-19T13:37:30;3.45;;;1.30;;
23171;SDS011;11754;42.664;23.594;2023-09-19T13:39:56;3.60;;;1.40;;
23171;SDS011;11754;42.664;23.594;2023-09-19T13:42:23;2.95;;;1.27;;
23171;SDS011;11754;42.664;23.594;2023-09-19T13:44:50;3.55;;;1.10;;
23171;SDS011;11754;42.664;23.594;2023-09-19T13:47:16;3.03;;;1.15;;
23171;SDS011;11754;42.664;23.594;2023-09-19T13:49:49;2.92;;;1.13;;
23171;SDS011;11754;42.664;23.594;2023-09-19T13:52:20;2.40;;;1.23;;
23171;SDS011;11754;42.664;23.594;2023-09-19T13:54:48;2.95;;;1.20;;
23171;SDS011;11754;42.664;23.594;2023-09-19T13:57:18;4.60;;;1.23;;
23171;SDS011;11754;42.664;23.594;2023-09-19T13:59:43;2.25;;;1.02;;
23171;SDS011;11754;42.664;23.594;2023-09-19T14:02:09;3.15;;;1.30;;
23171;SDS011;11754;42.664;23.594;2023-09-19T14:04:34;3.00;;;1.10;;
23171;SDS011;11754;42.664;23.594;2023-09-19T14:07:00;2.90;;;1.20;;
23171;SDS011;11754;42.664;23.594;2023-09-19T14:09:27;3.78;;;1.15;;
23171;SDS011;11754;42.664;23.594;2023-09-19T14:11:52;2.25;;;1.10;;
23171;SDS011;11754;42.664;23.594;2023-09-19T14:14:18;2.85;;;1.17;;
23171;SDS011;11754;42.664;23.594;2023-09-19T14:16:47;4.45;;;1.35;;
23171;SDS011;11754;42.664;23.594;2023-09-19T14:19:13;2.40;;;1.35;;
23171;SDS011;11754;42.664;23.594;2023-09-19T14:21:41;2.35;;;1.35;;
23171;SDS011;11754;42.664;23.594;2023-09-19T14:24:07;4.60;;;1.73;;
23171;SDS011;11754;42.664;23.594;2023-09-19T14:26:40;3.25;;;1.60;;
23171;SDS011;11754;42.664;23.594;2023-09-19T14:29:06;7.47;;;1.90;;
23171;SDS011;11754;42.664;23.594;2023-09-19T14:31:36;3.65;;;1.50;;
23171;SDS011;11754;42.664;23.594;2023-09-19T14:34:03;6.50;;;1.73;;
23171;SDS011;11754;42.664;23.594;2023-09-19T14:36:29;4.80;;;1.58;;
23171;SDS011;11754;42.664;23.594;2023-09-19T14:38:55;5.65;;;1.60;;
23171;SDS011;11754;42.664;23.594;2023-09-19T14:41:22;5.40;;;1.70;;
23171;SDS011;11754;42.664;23.594;2023-09-19T14:43:50;4.93;;;1.52;;
23171;SDS011;11754;42.664;23.594;2023-09-19T14:46:20;3.50;;;1.38;;
23171;SDS011;11754;42.664;23.594;2023-09-19T14:48:46;4.47;;;1.55;;
23171;SDS011;11754;42.664;23.594;2023-09-19T14:51:16;3.85;;;1.70;;
23171;SDS011;11754;42.664;23.594;2023-09-19T14:53:42;3.47;;;1.80;;
23171;SDS011;11754;42.664;23.594;2023-09-19T14:56:08;2.97;;;1.83;;
23171;SDS011;11754;42.664;23.594;2023-09-19T14:58:34;15.05;;;2.00;;
23171;SDS011;11754;42.664;23.594;2023-09-19T15:01:07;3.47;;;1.73;;
23171;SDS011;11754;42.664;23.594;2023-09-19T15:03:36;5.10;;;1.90;;
23171;SDS011;11754;42.664;23.594;2023-09-19T15:06:05;3.28;;;1.85;;
23171;SDS011;11754;42.664;23.594;2023-09-19T15:08:39;6.65;;;2.22;;
23171;SDS011;11754;42.664;23.594;2023-09-19T15:13:37;3.88;;;2.20;;
23171;SDS011;11754;42.664;23.594;2023-09-19T15:16:04;3.92;;;2.53;;
23171;SDS011;11754;42.664;23.594;2023-09-19T15:18:36;7.00;;;2.65;;
23171;SDS011;11754;42.664;23.594;2023-09-19T15:21:04;8.13;;;2.63;;
23171;SDS011;11754;42.664;23.594;2023-09-19T15:23:30;6.10;;;2.30;;
23171;SDS011;11754;42.664;23.594;2023-09-19T15:25:57;4.85;;;2.70;;
23171;SDS011;11754;42.664;23.594;2023-09-19T15:28:23;9.35;;;2.90;;
23171;SDS011;11754;42.664;23.594;2023-09-19T15:30:49;7.35;;;3.10;;
23171;SDS011;11754;42.664;23.594;2023-09-19T15:33:15;4.90;;;2.65;;
23171;SDS011;11754;42.664;23.594;2023-09-19T15:35:41;6.28;;;2.90;;
23171;SDS011;11754;42.664;23.594;2023-09-19T15:38:07;9.13;;;3.20;;
23171;SDS011;11754;42.664;23.594;2023-09-19T15:40:32;4.90;;;2.90;;
23171;SDS011;11754;42.664;23.594;2023-09-19T15:42:58;9.30;;;3.30;;
23171;SDS011;11754;42.664;23.594;2023-09-19T15:45:25;12.18;;;3.00;;
23171;SDS011;11754;42.664;23.594;2023-09-19T15:47:50;8.40;;;3.30;;
23171;SDS011;11754;42.664;23.594;2023-09-19T15:50:16;8.60;;;3.25;;
23171;SDS011;11754;42.664;23.594;2023-09-19T15:52:42;7.95;;;3.15;;